createdAt,value
2022-12-08T00:05:12.165Z,96741.34
2022-12-08T00:10:46.607Z,96729.72
2022-12-08T00:15:35.484Z,96727.00
2022-12-08T00:20:37.052Z,96718.78
2022-12-08T00:25:38.843Z,96719.97
2022-12-08T00:30:40.921Z,96713.38
2022-12-08T00:35:43.430Z,96718.09
2022-12-08T00:40:45.815Z,96706.06
2022-12-08T00:45:47.497Z,96708.44
2022-12-08T00:50:49.116Z,96705.63
2022-12-08T00:55:50.937Z,96706.41
2022-12-08T01:00:52.596Z,96694.81
2022-12-08T01:05:54.692Z,96706.88
2022-12-08T01:10:56.395Z,96703.09
2022-12-08T01:15:57.980Z,96706.13
2022-12-08T01:21:04.263Z,96708.44
2022-12-08T01:26:06.976Z,96701.63
2022-12-08T01:31:16.631Z,96704.81
2022-12-08T01:36:25.631Z,96705.09
2022-12-08T01:41:28.721Z,96699.34
2022-12-08T01:46:31.488Z,96698.72
2022-12-08T01:51:36.105Z,96691.41
2022-12-08T01:56:41.490Z,96687.84
2022-12-08T02:01:44.280Z,96675.44
2022-12-08T02:06:46.776Z,96672.50
2022-12-08T02:11:49.073Z,96676.59
2022-12-08T02:17:12.913Z,96669.56
2022-12-08T02:22:50.074Z,96662.53
2022-12-08T02:27:51.745Z,96665.09
2022-12-08T02:33:08.769Z,96658.78
2022-12-08T02:38:10.908Z,96662.09
2022-12-08T02:43:17.461Z,96659.22
2022-12-08T02:48:19.076Z,96654.66
2022-12-08T02:53:20.745Z,96655.94
2022-12-08T02:58:22.304Z,96649.94
2022-12-08T03:03:28.927Z,96660.59
2022-12-08T03:08:42.136Z,96651.63
2022-12-08T03:13:46.403Z,96649.16
2022-12-08T03:18:51.210Z,96645.31
2022-12-08T03:23:55.724Z,96632.44
2022-12-08T03:28:57.736Z,96631.97
2022-12-08T03:33:59.914Z,96627.50
2022-12-08T03:39:02.124Z,96618.94
2022-12-08T03:44:03.953Z,96621.63
2022-12-08T03:49:05.724Z,96609.19
2022-12-08T03:54:07.639Z,96607.28
2022-12-08T03:59:10.318Z,96606.38
2022-12-08T04:04:12.061Z,96611.91
2022-12-08T04:09:13.792Z,96605.16
2022-12-08T04:14:15.430Z,96616.25
2022-12-08T04:19:17.044Z,96606.63
2022-12-08T04:24:18.677Z,96610.66
2022-12-08T04:29:20.417Z,96611.59
2022-12-08T04:34:22.016Z,96592.63
2022-12-08T04:39:23.713Z,96589.00
2022-12-08T04:44:25.299Z,96580.06
2022-12-08T04:49:27.406Z,96586.28
2022-12-08T04:54:29.002Z,96585.13
2022-12-08T04:59:30.956Z,96578.13
2022-12-08T05:04:32.629Z,96581.16
2022-12-08T05:09:34.361Z,96581.06
2022-12-08T05:14:35.962Z,96571.34
2022-12-08T05:19:37.614Z,96577.53
2022-12-08T05:24:43.997Z,96571.09
2022-12-08T05:29:48.925Z,96568.88
2022-12-08T05:34:51.339Z,96567.56
2022-12-08T05:39:52.996Z,96560.84
2022-12-08T05:44:54.583Z,96557.69
2022-12-08T05:49:56.353Z,96561.88
2022-12-08T05:54:57.925Z,96557.69
2022-12-08T05:59:59.584Z,96559.78
2022-12-08T06:05:01.538Z,96554.34
2022-12-08T06:10:03.966Z,96560.44
2022-12-08T06:15:06.141Z,96558.91
2022-12-08T06:20:08.151Z,96565.72
2022-12-08T06:25:10.390Z,96555.13
2022-12-08T06:30:12.235Z,96550.03
2022-12-08T06:35:13.764Z,96559.66
2022-12-08T06:40:15.419Z,96567.28
2022-12-08T06:45:17.845Z,96561.41
2022-12-08T06:50:19.549Z,96562.78
2022-12-08T06:55:50.861Z,96575.00
2022-12-08T07:00:43.280Z,96570.75
2022-12-08T07:05:45.064Z,96573.88
2022-12-08T07:10:46.683Z,96580.81
2022-12-08T07:15:48.277Z,96569.59
2022-12-08T07:20:49.925Z,96579.00
2022-12-08T07:25:51.568Z,96578.22
2022-12-08T07:30:53.201Z,96582.59
2022-12-08T07:35:58.470Z,96582.88
2022-12-08T07:41:01.335Z,96588.88
2022-12-08T07:46:03.010Z,96587.09
2022-12-08T07:51:05.187Z,96583.03
2022-12-08T07:56:07.297Z,96591.88
2022-12-08T08:01:18.761Z,96589.34
2022-12-08T08:06:20.409Z,96590.69
2022-12-08T08:11:22.239Z,96595.00
2022-12-08T08:16:24.039Z,96595.75
2022-12-08T08:26:47.456Z,96601.22
2022-12-08T08:31:49.068Z,96597.53
2022-12-08T08:36:50.891Z,96598.75
2022-12-08T08:41:52.696Z,96596.97
2022-12-08T08:46:54.458Z,96595.75
2022-12-08T08:51:56.102Z,96586.00
2022-12-08T08:56:58.582Z,96588.88
2022-12-08T09:02:00.356Z,96577.91
2022-12-08T09:07:02.130Z,96582.03
2022-12-08T09:12:03.970Z,96583.22
2022-12-08T09:17:08.429Z,96584.84
2022-12-08T09:22:10.007Z,96584.81
2022-12-08T09:27:11.935Z,96577.66
2022-12-08T09:32:13.598Z,96576.19
2022-12-08T09:37:15.197Z,96569.69
2022-12-08T09:42:21.358Z,96556.97
2022-12-08T09:47:32.101Z,96559.44
2022-12-08T09:52:54.219Z,96560.03
2022-12-08T09:58:01.726Z,96554.91
2022-12-08T10:03:03.350Z,96546.66
2022-12-08T10:08:28.206Z,96537.97
2022-12-08T10:13:39.761Z,96536.09
2022-12-08T10:18:41.802Z,96529.53
2022-12-08T10:23:45.624Z,96519.94
2022-12-08T10:28:47.327Z,96523.31
2022-12-08T10:33:53.539Z,96512.28
2022-12-08T10:38:55.793Z,96505.81
2022-12-08T10:44:01.676Z,96487.59
2022-12-08T10:49:03.239Z,96490.31
2022-12-08T10:54:08.530Z,96475.50
2022-12-08T10:59:17.483Z,96476.56
2022-12-08T11:04:20.595Z,96476.41
2022-12-08T11:09:51.569Z,96474.03
2022-12-08T11:15:01.374Z,96458.47
2022-12-08T11:21:49.175Z,96449.53
2022-12-08T11:26:34.295Z,96450.31
2022-12-08T11:31:40.939Z,96450.66
2022-12-08T11:36:42.665Z,96437.63
2022-12-08T11:41:45.967Z,96425.47
2022-12-08T11:46:56.944Z,96432.03
2022-12-08T11:52:17.213Z,96416.44
2022-12-08T11:57:21.711Z,96421.56
2022-12-08T12:02:23.308Z,96408.13
2022-12-08T12:07:33.288Z,96402.78
2022-12-08T12:12:39.931Z,96388.69
2022-12-08T12:17:47.809Z,96391.22
2022-12-08T12:22:55.553Z,96387.69
2022-12-08T12:28:00.467Z,96383.09
2022-12-08T12:33:02.262Z,96378.28
2022-12-08T12:38:26.309Z,96395.31
2022-12-08T12:43:30.103Z,96403.59
2022-12-08T12:48:31.810Z,96396.25
2022-12-08T12:53:36.228Z,96394.72
2022-12-08T12:58:38.578Z,96388.66
2022-12-08T13:03:41.398Z,96390.47
2022-12-08T13:08:51.116Z,96388.09
2022-12-08T13:14:01.240Z,96393.84
2022-12-08T13:19:11.720Z,96381.28
2022-12-08T13:24:19.852Z,96383.44
2022-12-08T13:29:25.375Z,96381.75
2022-12-08T13:34:41.906Z,96377.56
2022-12-08T13:39:46.672Z,96377.25
2022-12-08T13:51:23.652Z,96369.91
2022-12-08T14:01:15.884Z,96370.66
2022-12-08T14:06:19.336Z,96359.56
2022-12-08T14:11:33.565Z,96348.56
2022-12-08T14:16:42.622Z,96352.44
2022-12-08T14:21:48.254Z,96344.47
2022-12-08T14:26:51.984Z,96348.00
2022-12-08T14:31:53.726Z,96350.03
2022-12-08T14:36:55.597Z,96351.69
2022-12-08T14:42:00.483Z,96344.97
2022-12-08T14:47:05.728Z,96356.38
2022-12-08T14:52:11.544Z,96345.28
2022-12-08T14:57:14.338Z,96336.91
2022-12-08T15:02:15.939Z,96340.88
2022-12-08T15:07:18.866Z,96339.94
2022-12-08T15:12:26.795Z,96341.66
2022-12-08T15:17:31.610Z,96340.88
2022-12-08T15:22:33.495Z,96335.38
2022-12-08T15:27:46.879Z,96330.94
2022-12-08T15:32:52.708Z,96329.22
2022-12-08T15:37:54.318Z,96329.06
2022-12-08T15:42:56.121Z,96327.00
2022-12-08T15:47:57.682Z,96323.91
2022-12-08T15:52:59.456Z,96324.31
2022-12-08T16:08:56.055Z,96332.16
2022-12-08T16:14:41.985Z,96325.59
2022-12-08T16:19:29.256Z,96323.94
2022-12-08T16:24:30.863Z,96334.28
2022-12-08T16:29:32.417Z,96327.22
2022-12-08T16:34:34.065Z,96323.28
2022-12-08T16:39:38.739Z,96331.38
2022-12-08T16:44:42.640Z,96331.59
2022-12-08T16:49:44.333Z,96333.22
2022-12-08T16:54:46.061Z,96333.56
2022-12-08T16:59:47.687Z,96331.13
2022-12-08T17:04:49.277Z,96327.34
2022-12-08T17:09:50.987Z,96315.63
2022-12-08T17:14:53.413Z,96316.25
2022-12-08T17:19:55.006Z,96314.03
2022-12-08T17:24:56.637Z,96318.47
2022-12-08T17:29:58.271Z,96322.91
2022-12-08T17:34:59.992Z,96325.72
2022-12-08T17:40:01.730Z,96317.97
2022-12-08T17:45:04.097Z,96315.22
2022-12-08T17:50:06.687Z,96312.56
2022-12-08T17:55:09.853Z,96310.13
2022-12-08T18:00:11.873Z,96307.53
2022-12-08T18:05:13.615Z,96317.84
2022-12-08T18:10:15.738Z,96309.97
2022-12-08T18:15:19.328Z,96309.88
2022-12-08T18:20:20.929Z,96315.00
2022-12-08T18:25:22.557Z,96306.66
2022-12-08T18:30:24.226Z,96314.50
2022-12-08T18:35:28.725Z,96309.03
2022-12-08T18:40:30.845Z,96313.66
2022-12-08T18:45:32.716Z,96309.53
2022-12-08T18:50:34.377Z,96320.69
2022-12-08T18:55:37.088Z,96323.03
2022-12-08T19:00:39.268Z,96319.59
2022-12-08T19:05:40.939Z,96318.28
2022-12-08T19:10:42.822Z,96310.19
2022-12-08T19:15:44.448Z,96303.03
2022-12-08T19:20:46.107Z,96303.34
2022-12-08T19:25:47.755Z,96306.13
2022-12-08T19:30:49.478Z,96311.72
2022-12-08T19:35:52.877Z,96313.53
2022-12-08T19:41:27.145Z,96298.78
2022-12-08T19:46:29.072Z,96311.31
2022-12-08T19:51:30.815Z,96303.16
2022-12-08T19:56:32.448Z,96303.22
2022-12-08T20:01:34.116Z,96298.47
2022-12-08T20:07:51.497Z,96300.44
2022-12-08T20:13:13.112Z,96292.22
2022-12-08T20:18:15.105Z,96295.16
2022-12-08T20:23:16.959Z,96296.13
2022-12-08T20:28:19.143Z,96288.03
2022-12-08T20:33:20.830Z,96283.94
2022-12-08T20:38:22.464Z,96274.88
2022-12-08T20:43:24.353Z,96282.50
2022-12-08T20:48:25.992Z,96292.59
2022-12-08T20:53:27.683Z,96297.50
2022-12-08T20:58:29.541Z,96290.47
2022-12-08T21:03:31.249Z,96297.50
2022-12-08T21:08:33.198Z,96286.63
2022-12-08T21:13:37.006Z,96290.06
2022-12-08T21:18:39.862Z,96287.84
2022-12-08T21:23:42.407Z,96280.91
2022-12-08T21:28:44.433Z,96277.34
2022-12-08T21:33:46.212Z,96271.63
2022-12-08T21:38:48.674Z,96270.91
2022-12-08T21:43:50.641Z,96267.91
2022-12-08T21:48:52.469Z,96283.16
2022-12-08T21:53:55.079Z,96272.84
2022-12-08T21:58:57.111Z,96278.13
2022-12-08T22:03:58.885Z,96283.66
2022-12-08T22:09:00.742Z,96285.75
2022-12-08T22:14:02.399Z,96287.97
2022-12-08T22:19:04.078Z,96282.69
2022-12-08T22:24:06.215Z,96286.28
2022-12-08T22:29:08.549Z,96273.56
2022-12-08T22:34:10.336Z,96268.97
2022-12-08T22:39:12.396Z,96263.81
2022-12-08T22:44:16.363Z,96264.06
2022-12-08T22:49:18.178Z,96264.06
2022-12-08T22:54:20.008Z,96256.00
2022-12-08T22:59:21.929Z,96263.38
2022-12-08T23:04:23.845Z,96249.94
2022-12-08T23:09:25.638Z,96258.25
2022-12-08T23:14:27.714Z,96241.47
2022-12-08T23:19:29.256Z,96242.84
2022-12-08T23:24:31.267Z,96240.50
2022-12-08T23:29:32.925Z,96223.09
2022-12-08T23:34:34.517Z,96228.25
2022-12-08T23:39:36.197Z,96213.72
2022-12-08T23:44:37.819Z,96215.84
2022-12-08T23:49:39.840Z,96209.56
2022-12-08T23:54:41.496Z,96217.53
2022-12-08T23:59:43.144Z,96214.00
